Terminal Aerodrome Forecast
Issued by NWS

Home | Current Version | Previous Version | Text Only | Print | Product List | Glossary On
Versions: 1 2 3 4 5 6 7 8 9 10 11 12 13 14 15 16 17 18
000
FTUS46 KMTR 242300 RRA
TAFMRY
TAF
KMRY 242351Z 2500/2524 29014G24KT P6SM BKN030
      TEMPO 2500/2502 -RA BKN020
     FM250400 29011G17KT P6SM SCT030
     FM251800 29009KT P6SM FEW030=

USA.gov is the U.S. government's official web portal to all federal, state and local government web resources and services.